sensor_id;sensor_type;location;lat;lon;timestamp;P1;durP1;ratioP1;P2;durP2;ratioP2
29246;SDS011;16272;48.188;9.964;2023-12-29T00:00:33;10.10;;;4.87;;
29246;SDS011;16272;48.188;9.964;2023-12-29T00:02:59;9.87;;;5.27;;
29246;SDS011;16272;48.188;9.964;2023-12-29T00:05:24;9.60;;;4.53;;
29246;SDS011;16272;48.188;9.964;2023-12-29T00:07:50;11.23;;;4.95;;
29246;SDS011;16272;48.188;9.964;2023-12-29T00:10:15;10.20;;;4.97;;
29246;SDS011;16272;48.188;9.964;2023-12-29T00:12:40;9.60;;;4.27;;
29246;SDS011;16272;48.188;9.964;2023-12-29T00:15:06;11.30;;;4.80;;
29246;SDS011;16272;48.188;9.964;2023-12-29T00:17:31;11.23;;;4.95;;
29246;SDS011;16272;48.188;9.964;2023-12-29T00:19:57;9.77;;;5.07;;
29246;SDS011;16272;48.188;9.964;2023-12-29T00:22:22;9.33;;;4.03;;
29246;SDS011;16272;48.188;9.964;2023-12-29T00:24:48;10.20;;;4.60;;
29246;SDS011;16272;48.188;9.964;2023-12-29T00:27:14;11.00;;;5.20;;
29246;SDS011;16272;48.188;9.964;2023-12-29T00:29:39;11.03;;;5.50;;
29246;SDS011;16272;48.188;9.964;2023-12-29T00:32:04;9.47;;;4.07;;
29246;SDS011;16272;48.188;9.964;2023-12-29T00:34:30;10.98;;;5.45;;
29246;SDS011;16272;48.188;9.964;2023-12-29T00:36:55;11.37;;;5.90;;
29246;SDS011;16272;48.188;9.964;2023-12-29T00:39:21;11.37;;;4.67;;
29246;SDS011;16272;48.188;9.964;2023-12-29T00:41:53;11.73;;;5.20;;
29246;SDS011;16272;48.188;9.964;2023-12-29T00:44:19;10.27;;;4.28;;
29246;SDS011;16272;48.188;9.964;2023-12-29T00:46:44;10.70;;;4.93;;
29246;SDS011;16272;48.188;9.964;2023-12-29T00:49:09;11.00;;;5.20;;
29246;SDS011;16272;48.188;9.964;2023-12-29T00:51:39;9.30;;;3.90;;
29246;SDS011;16272;48.188;9.964;2023-12-29T00:54:06;9.85;;;4.82;;
29246;SDS011;16272;48.188;9.964;2023-12-29T00:56:31;10.20;;;4.73;;
29246;SDS011;16272;48.188;9.964;2023-12-29T00:58:56;10.43;;;4.60;;
29246;SDS011;16272;48.188;9.964;2023-12-29T01:01:21;10.73;;;4.80;;
29246;SDS011;16272;48.188;9.964;2023-12-29T01:03:47;10.33;;;4.87;;
29246;SDS011;16272;48.188;9.964;2023-12-29T01:06:12;10.27;;;4.20;;
29246;SDS011;16272;48.188;9.964;2023-12-29T01:08:37;9.97;;;3.80;;
29246;SDS011;16272;48.188;9.964;2023-12-29T01:11:03;9.73;;;3.77;;
29246;SDS011;16272;48.188;9.964;2023-12-29T01:13:28;11.80;;;5.10;;
29246;SDS011;16272;48.188;9.964;2023-12-29T01:15:53;11.30;;;5.00;;
29246;SDS011;16272;48.188;9.964;2023-12-29T01:18:19;11.17;;;4.93;;
29246;SDS011;16272;48.188;9.964;2023-12-29T01:20:44;9.50;;;3.90;;
29246;SDS011;16272;48.188;9.964;2023-12-29T01:23:09;8.87;;;3.90;;
29246;SDS011;16272;48.188;9.964;2023-12-29T01:25:34;10.30;;;5.00;;
29246;SDS011;16272;48.188;9.964;2023-12-29T01:28:00;11.20;;;4.77;;
29246;SDS011;16272;48.188;9.964;2023-12-29T01:30:25;10.37;;;4.10;;
29246;SDS011;16272;48.188;9.964;2023-12-29T01:32:51;11.27;;;5.37;;
29246;SDS011;16272;48.188;9.964;2023-12-29T01:35:16;11.73;;;5.43;;
29246;SDS011;16272;48.188;9.964;2023-12-29T01:37:42;11.63;;;4.83;;
29246;SDS011;16272;48.188;9.964;2023-12-29T01:40:07;9.93;;;3.83;;
29246;SDS011;16272;48.188;9.964;2023-12-29T01:42:33;10.40;;;4.80;;
29246;SDS011;16272;48.188;9.964;2023-12-29T01:44:58;10.57;;;5.10;;
29246;SDS011;16272;48.188;9.964;2023-12-29T01:47:24;10.30;;;4.20;;
29246;SDS011;16272;48.188;9.964;2023-12-29T01:49:49;10.57;;;4.63;;
29246;SDS011;16272;48.188;9.964;2023-12-29T01:52:16;9.30;;;4.47;;
29246;SDS011;16272;48.188;9.964;2023-12-29T01:54:42;10.30;;;4.72;;
29246;SDS011;16272;48.188;9.964;2023-12-29T01:57:09;10.65;;;4.88;;
29246;SDS011;16272;48.188;9.964;2023-12-29T01:59:35;10.90;;;4.95;;
29246;SDS011;16272;48.188;9.964;2023-12-29T02:02:03;9.98;;;4.68;;
29246;SDS011;16272;48.188;9.964;2023-12-29T02:04:29;11.35;;;5.32;;
29246;SDS011;16272;48.188;9.964;2023-12-29T02:06:55;9.48;;;4.78;;
29246;SDS011;16272;48.188;9.964;2023-12-29T02:09:21;10.23;;;4.83;;
29246;SDS011;16272;48.188;9.964;2023-12-29T02:11:47;9.80;;;4.93;;
29246;SDS011;16272;48.188;9.964;2023-12-29T02:14:13;10.63;;;5.10;;
29246;SDS011;16272;48.188;9.964;2023-12-29T02:16:45;10.88;;;4.70;;
29246;SDS011;16272;48.188;9.964;2023-12-29T02:19:37;12.63;;;5.13;;
29246;SDS011;16272;48.188;9.964;2023-12-29T02:22:05;10.63;;;4.90;;
29246;SDS011;16272;48.188;9.964;2023-12-29T02:24:33;9.77;;;4.68;;
29246;SDS011;16272;48.188;9.964;2023-12-29T02:27:15;9.43;;;4.50;;
29246;SDS011;16272;48.188;9.964;2023-12-29T02:32:48;8.93;;;3.42;;
29246;SDS011;16272;48.188;9.964;2023-12-29T02:35:21;10.73;;;4.63;;
29246;SDS011;16272;48.188;9.964;2023-12-29T02:37:49;9.52;;;4.57;;
29246;SDS011;16272;48.188;9.964;2023-12-29T02:40:14;10.47;;;4.50;;
29246;SDS011;16272;48.188;9.964;2023-12-29T02:42:44;9.48;;;4.45;;
29246;SDS011;16272;48.188;9.964;2023-12-29T02:45:11;9.70;;;4.43;;
29246;SDS011;16272;48.188;9.964;2023-12-29T02:47:36;9.40;;;4.03;;
29246;SDS011;16272;48.188;9.964;2023-12-29T02:50:02;9.93;;;4.03;;
29246;SDS011;16272;48.188;9.964;2023-12-29T02:52:27;8.87;;;4.10;;
29246;SDS011;16272;48.188;9.964;2023-12-29T02:54:53;9.67;;;4.23;;
29246;SDS011;16272;48.188;9.964;2023-12-29T02:57:18;9.03;;;3.90;;
29246;SDS011;16272;48.188;9.964;2023-12-29T02:59:43;9.53;;;4.10;;
29246;SDS011;16272;48.188;9.964;2023-12-29T03:02:08;9.10;;;3.43;;
29246;SDS011;16272;48.188;9.964;2023-12-29T03:04:35;9.93;;;4.10;;
29246;SDS011;16272;48.188;9.964;2023-12-29T03:07:01;8.83;;;3.40;;
29246;SDS011;16272;48.188;9.964;2023-12-29T03:09:26;9.60;;;3.90;;
29246;SDS011;16272;48.188;9.964;2023-12-29T03:11:51;8.63;;;3.73;;
29246;SDS011;16272;48.188;9.964;2023-12-29T03:14:16;8.23;;;3.37;;
29246;SDS011;16272;48.188;9.964;2023-12-29T03:16:42;8.97;;;3.90;;
29246;SDS011;16272;48.188;9.964;2023-12-29T03:19:07;8.43;;;3.10;;
29246;SDS011;16272;48.188;9.964;2023-12-29T03:21:32;7.90;;;2.87;;
29246;SDS011;16272;48.188;9.964;2023-12-29T03:23:58;8.93;;;3.90;;
29246;SDS011;16272;48.188;9.964;2023-12-29T03:26:23;8.80;;;4.00;;
29246;SDS011;16272;48.188;9.964;2023-12-29T03:28:48;9.40;;;3.77;;
29246;SDS011;16272;48.188;9.964;2023-12-29T03:31:13;9.20;;;4.10;;
29246;SDS011;16272;48.188;9.964;2023-12-29T03:33:39;8.83;;;4.00;;
29246;SDS011;16272;48.188;9.964;2023-12-29T03:36:05;8.90;;;3.92;;
29246;SDS011;16272;48.188;9.964;2023-12-29T03:38:30;10.40;;;3.77;;
29246;SDS011;16272;48.188;9.964;2023-12-29T03:40:57;8.95;;;3.85;;
29246;SDS011;16272;48.188;9.964;2023-12-29T03:43:22;9.10;;;3.80;;
29246;SDS011;16272;48.188;9.964;2023-12-29T03:45:47;8.53;;;3.97;;
29246;SDS011;16272;48.188;9.964;2023-12-29T03:48:12;9.80;;;3.93;;
29246;SDS011;16272;48.188;9.964;2023-12-29T03:50:38;10.10;;;4.20;;
29246;SDS011;16272;48.188;9.964;2023-12-29T03:53:04;8.63;;;3.25;;
29246;SDS011;16272;48.188;9.964;2023-12-29T03:55:29;8.17;;;3.30;;
29246;SDS011;16272;48.188;9.964;2023-12-29T03:57:54;9.57;;;4.00;;
29246;SDS011;16272;48.188;9.964;2023-12-29T04:00:19;8.63;;;3.60;;
29246;SDS011;16272;48.188;9.964;2023-12-29T04:02:45;8.30;;;3.77;;
29246;SDS011;16272;48.188;9.964;2023-12-29T04:05:10;9.17;;;4.00;;
29246;SDS011;16272;48.188;9.964;2023-12-29T04:07:38;9.80;;;4.05;;
29246;SDS011;16272;48.188;9.964;2023-12-29T04:10:04;10.00;;;3.97;;
29246;SDS011;16272;48.188;9.964;2023-12-29T04:12:30;9.67;;;4.10;;
29246;SDS011;16272;48.188;9.964;2023-12-29T04:14:55;10.30;;;3.93;;
29246;SDS011;16272;48.188;9.964;2023-12-29T04:17:20;9.40;;;4.20;;
29246;SDS011;16272;48.188;9.964;2023-12-29T04:19:46;9.20;;;4.23;;
29246;SDS011;16272;48.188;9.964;2023-12-29T04:22:11;10.20;;;4.10;;
29246;SDS011;16272;48.188;9.964;2023-12-29T04:24:39;9.50;;;4.03;;
29246;SDS011;16272;48.188;9.964;2023-12-29T04:27:05;9.02;;;4.07;;
29246;SDS011;16272;48.188;9.964;2023-12-29T04:29:30;8.93;;;3.20;;
29246;SDS011;16272;48.188;9.964;2023-12-29T04:31:56;9.27;;;3.97;;
29246;SDS011;16272;48.188;9.964;2023-12-29T04:34:21;9.57;;;3.95;;
29246;SDS011;16272;48.188;9.964;2023-12-29T04:36:46;8.17;;;3.27;;
29246;SDS011;16272;48.188;9.964;2023-12-29T04:39:11;9.30;;;4.20;;
29246;SDS011;16272;48.188;9.964;2023-12-29T04:41:37;9.30;;;4.03;;
29246;SDS011;16272;48.188;9.964;2023-12-29T04:44:02;9.30;;;3.60;;
29246;SDS011;16272;48.188;9.964;2023-12-29T04:46:27;10.03;;;4.30;;
29246;SDS011;16272;48.188;9.964;2023-12-29T04:48:53;8.53;;;3.27;;
29246;SDS011;16272;48.188;9.964;2023-12-29T04:51:18;8.33;;;3.57;;
29246;SDS011;16272;48.188;9.964;2023-12-29T04:53:44;8.43;;;2.80;;
29246;SDS011;16272;48.188;9.964;2023-12-29T04:56:09;9.68;;;4.00;;
29246;SDS011;16272;48.188;9.964;2023-12-29T04:58:34;9.60;;;3.60;;
29246;SDS011;16272;48.188;9.964;2023-12-29T05:01:00;9.63;;;4.10;;
29246;SDS011;16272;48.188;9.964;2023-12-29T05:03:25;9.57;;;4.10;;
29246;SDS011;16272;48.188;9.964;2023-12-29T05:05:50;8.33;;;3.07;;
29246;SDS011;16272;48.188;9.964;2023-12-29T05:08:15;9.47;;;4.20;;
29246;SDS011;16272;48.188;9.964;2023-12-29T05:10:41;8.63;;;3.35;;
29246;SDS011;16272;48.188;9.964;2023-12-29T05:13:06;9.17;;;3.43;;
29246;SDS011;16272;48.188;9.964;2023-12-29T05:15:32;8.20;;;3.17;;
29246;SDS011;16272;48.188;9.964;2023-12-29T05:17:57;9.20;;;3.80;;
29246;SDS011;16272;48.188;9.964;2023-12-29T05:20:22;9.77;;;3.20;;
29246;SDS011;16272;48.188;9.964;2023-12-29T05:22:47;8.50;;;3.47;;
29246;SDS011;16272;48.188;9.964;2023-12-29T05:25:13;8.93;;;4.10;;
29246;SDS011;16272;48.188;9.964;2023-12-29T05:27:38;9.47;;;3.90;;
29246;SDS011;16272;48.188;9.964;2023-12-29T05:30:03;9.60;;;4.00;;
29246;SDS011;16272;48.188;9.964;2023-12-29T05:32:29;8.80;;;3.60;;
29246;SDS011;16272;48.188;9.964;2023-12-29T05:34:54;9.43;;;4.10;;
29246;SDS011;16272;48.188;9.964;2023-12-29T05:37:20;8.83;;;4.03;;
29246;SDS011;16272;48.188;9.964;2023-12-29T05:39:45;8.93;;;4.03;;
29246;SDS011;16272;48.188;9.964;2023-12-29T05:42:10;9.27;;;3.80;;
29246;SDS011;16272;48.188;9.964;2023-12-29T05:44:36;9.80;;;4.00;;
29246;SDS011;16272;48.188;9.964;2023-12-29T05:47:02;8.90;;;3.75;;
29246;SDS011;16272;48.188;9.964;2023-12-29T05:49:27;9.10;;;3.63;;
29246;SDS011;16272;48.188;9.964;2023-12-29T05:51:53;8.50;;;3.60;;
29246;SDS011;16272;48.188;9.964;2023-12-29T05:54:18;8.77;;;3.80;;
29246;SDS011;16272;48.188;9.964;2023-12-29T05:56:43;9.37;;;3.27;;
29246;SDS011;16272;48.188;9.964;2023-12-29T05:59:08;8.40;;;3.50;;
29246;SDS011;16272;48.188;9.964;2023-12-29T06:01:34;9.93;;;3.50;;
29246;SDS011;16272;48.188;9.964;2023-12-29T06:03:59;8.43;;;3.40;;
29246;SDS011;16272;48.188;9.964;2023-12-29T06:06:24;7.70;;;2.75;;
29246;SDS011;16272;48.188;9.964;2023-12-29T06:08:50;8.50;;;3.50;;
29246;SDS011;16272;48.188;9.964;2023-12-29T06:11:15;8.43;;;3.60;;
29246;SDS011;16272;48.188;9.964;2023-12-29T06:13:41;8.45;;;3.45;;
29246;SDS011;16272;48.188;9.964;2023-12-29T06:16:06;8.00;;;3.53;;
29246;SDS011;16272;48.188;9.964;2023-12-29T06:18:32;8.80;;;3.57;;
29246;SDS011;16272;48.188;9.964;2023-12-29T06:20:57;8.77;;;3.53;;
29246;SDS011;16272;48.188;9.964;2023-12-29T06:23:22;8.60;;;3.57;;
29246;SDS011;16272;48.188;9.964;2023-12-29T06:25:48;7.93;;;3.57;;
29246;SDS011;16272;48.188;9.964;2023-12-29T06:28:13;8.63;;;3.67;;
29246;SDS011;16272;48.188;9.964;2023-12-29T06:30:39;9.93;;;3.77;;
29246;SDS011;16272;48.188;9.964;2023-12-29T06:33:04;8.67;;;3.37;;
29246;SDS011;16272;48.188;9.964;2023-12-29T06:35:30;8.60;;;3.70;;
29246;SDS011;16272;48.188;9.964;2023-12-29T06:37:55;7.67;;;2.97;;
29246;SDS011;16272;48.188;9.964;2023-12-29T06:40:20;8.52;;;3.88;;
29246;SDS011;16272;48.188;9.964;2023-12-29T06:42:45;8.03;;;2.77;;
29246;SDS011;16272;48.188;9.964;2023-12-29T06:45:11;7.33;;;3.00;;
29246;SDS011;16272;48.188;9.964;2023-12-29T06:47:36;8.90;;;3.70;;
29246;SDS011;16272;48.188;9.964;2023-12-29T06:50:01;7.67;;;3.13;;
29246;SDS011;16272;48.188;9.964;2023-12-29T06:52:28;8.82;;;2.80;;
29246;SDS011;16272;48.188;9.964;2023-12-29T06:54:58;9.75;;;3.70;;
29246;SDS011;16272;48.188;9.964;2023-12-29T06:57:24;8.10;;;2.97;;
29246;SDS011;16272;48.188;9.964;2023-12-29T06:59:49;8.68;;;3.58;;
29246;SDS011;16272;48.188;9.964;2023-12-29T07:02:15;9.20;;;3.72;;
29246;SDS011;16272;48.188;9.964;2023-12-29T07:04:41;8.87;;;3.23;;
29246;SDS011;16272;48.188;9.964;2023-12-29T07:07:07;7.10;;;2.53;;
29246;SDS011;16272;48.188;9.964;2023-12-29T07:09:33;8.10;;;2.63;;
29246;SDS011;16272;48.188;9.964;2023-12-29T07:11:58;9.00;;;3.60;;
29246;SDS011;16272;48.188;9.964;2023-12-29T07:14:23;9.27;;;3.20;;
29246;SDS011;16272;48.188;9.964;2023-12-29T07:16:48;8.03;;;2.90;;
29246;SDS011;16272;48.188;9.964;2023-12-29T07:19:14;7.83;;;2.90;;
29246;SDS011;16272;48.188;9.964;2023-12-29T07:21:39;8.20;;;2.63;;
29246;SDS011;16272;48.188;9.964;2023-12-29T07:24:04;7.73;;;2.40;;
29246;SDS011;16272;48.188;9.964;2023-12-29T07:26:32;7.65;;;2.60;;
29246;SDS011;16272;48.188;9.964;2023-12-29T07:28:58;7.22;;;2.67;;
29246;SDS011;16272;48.188;9.964;2023-12-29T07:31:23;9.57;;;3.00;;
29246;SDS011;16272;48.188;9.964;2023-12-29T07:33:49;7.77;;;2.80;;
29246;SDS011;16272;48.188;9.964;2023-12-29T07:36:14;9.40;;;4.10;;
29246;SDS011;16272;48.188;9.964;2023-12-29T07:38:40;7.93;;;3.20;;
29246;SDS011;16272;48.188;9.964;2023-12-29T07:41:05;9.20;;;3.60;;
29246;SDS011;16272;48.188;9.964;2023-12-29T07:43:31;9.77;;;3.83;;
29246;SDS011;16272;48.188;9.964;2023-12-29T07:45:56;11.75;;;3.38;;
29246;SDS011;16272;48.188;9.964;2023-12-29T07:48:22;6.83;;;2.67;;
29246;SDS011;16272;48.188;9.964;2023-12-29T07:50:47;9.43;;;2.93;;
29246;SDS011;16272;48.188;9.964;2023-12-29T07:53:13;8.43;;;3.17;;
29246;SDS011;16272;48.188;9.964;2023-12-29T07:55:38;9.33;;;3.90;;
29246;SDS011;16272;48.188;9.964;2023-12-29T07:58:04;10.35;;;4.50;;
29246;SDS011;16272;48.188;9.964;2023-12-29T08:00:30;8.67;;;3.40;;
29246;SDS011;16272;48.188;9.964;2023-12-29T08:02:55;9.37;;;3.70;;
29246;SDS011;16272;48.188;9.964;2023-12-29T08:05:20;10.70;;;5.50;;
29246;SDS011;16272;48.188;9.964;2023-12-29T08:07:46;8.23;;;3.43;;
29246;SDS011;16272;48.188;9.964;2023-12-29T08:10:11;7.80;;;2.80;;
29246;SDS011;16272;48.188;9.964;2023-12-29T08:12:36;8.00;;;3.00;;
29246;SDS011;16272;48.188;9.964;2023-12-29T08:15:02;7.30;;;3.00;;
29246;SDS011;16272;48.188;9.964;2023-12-29T08:17:27;8.70;;;3.47;;
29246;SDS011;16272;48.188;9.964;2023-12-29T08:19:53;7.82;;;3.00;;
29246;SDS011;16272;48.188;9.964;2023-12-29T08:22:19;7.43;;;2.73;;
29246;SDS011;16272;48.188;9.964;2023-12-29T08:24:44;8.17;;;2.67;;
29246;SDS011;16272;48.188;9.964;2023-12-29T08:27:11;8.60;;;3.78;;
29246;SDS011;16272;48.188;9.964;2023-12-29T08:29:37;8.43;;;2.80;;
29246;SDS011;16272;48.188;9.964;2023-12-29T08:32:02;9.00;;;3.60;;
29246;SDS011;16272;48.188;9.964;2023-12-29T08:34:28;9.27;;;2.97;;
29246;SDS011;16272;48.188;9.964;2023-12-29T08:36:53;11.20;;;3.90;;
29246;SDS011;16272;48.188;9.964;2023-12-29T08:39:18;7.57;;;2.60;;
29246;SDS011;16272;48.188;9.964;2023-12-29T08:41:44;8.93;;;3.87;;
29246;SDS011;16272;48.188;9.964;2023-12-29T08:44:09;8.52;;;3.63;;
29246;SDS011;16272;48.188;9.964;2023-12-29T08:46:34;8.17;;;2.80;;
29246;SDS011;16272;48.188;9.964;2023-12-29T08:49:00;7.37;;;2.70;;
29246;SDS011;16272;48.188;9.964;2023-12-29T08:51:26;8.88;;;3.15;;
29246;SDS011;16272;48.188;9.964;2023-12-29T08:53:51;8.83;;;3.63;;
29246;SDS011;16272;48.188;9.964;2023-12-29T08:56:16;8.50;;;2.70;;
29246;SDS011;16272;48.188;9.964;2023-12-29T08:58:41;7.93;;;3.23;;
29246;SDS011;16272;48.188;9.964;2023-12-29T09:01:07;8.40;;;2.60;;
29246;SDS011;16272;48.188;9.964;2023-12-29T09:03:32;8.50;;;3.03;;
29246;SDS011;16272;48.188;9.964;2023-12-29T09:05:57;8.57;;;3.30;;
29246;SDS011;16272;48.188;9.964;2023-12-29T09:08:26;7.25;;;3.40;;
29246;SDS011;16272;48.188;9.964;2023-12-29T09:10:52;7.18;;;2.80;;
29246;SDS011;16272;48.188;9.964;2023-12-29T09:13:17;8.23;;;3.27;;
29246;SDS011;16272;48.188;9.964;2023-12-29T09:15:43;7.75;;;2.80;;
29246;SDS011;16272;48.188;9.964;2023-12-29T09:18:08;6.90;;;3.00;;
29246;SDS011;16272;48.188;9.964;2023-12-29T09:20:35;9.80;;;3.60;;
29246;SDS011;16272;48.188;9.964;2023-12-29T09:23:00;7.10;;;2.70;;
29246;SDS011;16272;48.188;9.964;2023-12-29T09:25:26;8.60;;;3.40;;
29246;SDS011;16272;48.188;9.964;2023-12-29T09:27:51;7.90;;;3.05;;
29246;SDS011;16272;48.188;9.964;2023-12-29T09:30:17;7.17;;;2.80;;
29246;SDS011;16272;48.188;9.964;2023-12-29T09:32:42;7.28;;;2.42;;
29246;SDS011;16272;48.188;9.964;2023-12-29T09:35:08;7.30;;;3.20;;
29246;SDS011;16272;48.188;9.964;2023-12-29T09:37:33;8.47;;;2.97;;
29246;SDS011;16272;48.188;9.964;2023-12-29T09:39:58;7.67;;;3.03;;
29246;SDS011;16272;48.188;9.964;2023-12-29T09:42:24;8.87;;;3.53;;
29246;SDS011;16272;48.188;9.964;2023-12-29T09:44:53;6.97;;;2.47;;
29246;SDS011;16272;48.188;9.964;2023-12-29T09:47:22;7.17;;;3.03;;
29246;SDS011;16272;48.188;9.964;2023-12-29T09:49:48;7.55;;;2.85;;
29246;SDS011;16272;48.188;9.964;2023-12-29T09:52:14;7.23;;;2.40;;
29246;SDS011;16272;48.188;9.964;2023-12-29T09:54:41;7.97;;;3.15;;
29246;SDS011;16272;48.188;9.964;2023-12-29T09:57:08;7.20;;;2.83;;
29246;SDS011;16272;48.188;9.964;2023-12-29T09:59:37;8.32;;;2.97;;
29246;SDS011;16272;48.188;9.964;2023-12-29T10:02:05;7.28;;;2.92;;
29246;SDS011;16272;48.188;9.964;2023-12-29T10:04:37;7.55;;;2.92;;
29246;SDS011;16272;48.188;9.964;2023-12-29T10:07:03;7.55;;;3.05;;
29246;SDS011;16272;48.188;9.964;2023-12-29T10:09:33;7.27;;;3.20;;
29246;SDS011;16272;48.188;9.964;2023-12-29T10:11:59;6.95;;;2.83;;
29246;SDS011;16272;48.188;9.964;2023-12-29T10:14:46;7.97;;;3.10;;
29246;SDS011;16272;48.188;9.964;2023-12-29T10:17:19;8.00;;;3.08;;
29246;SDS011;16272;48.188;9.964;2023-12-29T10:20:08;7.68;;;3.13;;
29246;SDS011;16272;48.188;9.964;2023-12-29T10:22:46;7.37;;;2.23;;
29246;SDS011;16272;48.188;9.964;2023-12-29T10:25:18;6.55;;;2.50;;
29246;SDS011;16272;48.188;9.964;2023-12-29T10:27:44;6.78;;;2.50;;
29246;SDS011;16272;48.188;9.964;2023-12-29T10:30:10;8.07;;;2.53;;
29246;SDS011;16272;48.188;9.964;2023-12-29T10:32:37;7.32;;;2.53;;
29246;SDS011;16272;48.188;9.964;2023-12-29T10:35:09;6.53;;;2.27;;
29246;SDS011;16272;48.188;9.964;2023-12-29T10:37:35;6.43;;;2.20;;
29246;SDS011;16272;48.188;9.964;2023-12-29T10:40:01;7.60;;;3.00;;
29246;SDS011;16272;48.188;9.964;2023-12-29T10:42:27;7.63;;;2.83;;
29246;SDS011;16272;48.188;9.964;2023-12-29T10:45:09;7.80;;;3.00;;
29246;SDS011;16272;48.188;9.964;2023-12-29T10:47:35;7.57;;;3.10;;
29246;SDS011;16272;48.188;9.964;2023-12-29T10:50:01;8.13;;;2.90;;
29246;SDS011;16272;48.188;9.964;2023-12-29T10:52:31;6.90;;;2.40;;
29246;SDS011;16272;48.188;9.964;2023-12-29T10:55:07;6.45;;;2.60;;
29246;SDS011;16272;48.188;9.964;2023-12-29T10:57:34;8.60;;;3.00;;
29246;SDS011;16272;48.188;9.964;2023-12-29T11:00:00;7.30;;;2.63;;
29246;SDS011;16272;48.188;9.964;2023-12-29T11:02:26;7.53;;;3.00;;
29246;SDS011;16272;48.188;9.964;2023-12-29T11:05:00;7.55;;;2.80;;
29246;SDS011;16272;48.188;9.964;2023-12-29T11:07:30;9.32;;;2.67;;
29246;SDS011;16272;48.188;9.964;2023-12-29T11:10:00;7.70;;;3.47;;
29246;SDS011;16272;48.188;9.964;2023-12-29T11:12:28;7.03;;;3.00;;
29246;SDS011;16272;48.188;9.964;2023-12-29T11:14:56;7.93;;;3.20;;
29246;SDS011;16272;48.188;9.964;2023-12-29T11:17:21;8.43;;;3.60;;
29246;SDS011;16272;48.188;9.964;2023-12-29T11:19:47;7.27;;;3.00;;
29246;SDS011;16272;48.188;9.964;2023-12-29T11:22:15;7.97;;;3.40;;
29246;SDS011;16272;48.188;9.964;2023-12-29T11:24:42;7.80;;;3.30;;
29246;SDS011;16272;48.188;9.964;2023-12-29T11:27:07;6.53;;;2.13;;
29246;SDS011;16272;48.188;9.964;2023-12-29T11:29:36;7.05;;;2.53;;
29246;SDS011;16272;48.188;9.964;2023-12-29T11:32:03;7.18;;;2.75;;
29246;SDS011;16272;48.188;9.964;2023-12-29T11:34:37;7.28;;;3.33;;
29246;SDS011;16272;48.188;9.964;2023-12-29T11:40:21;7.07;;;2.72;;
29246;SDS011;16272;48.188;9.964;2023-12-29T11:42:56;7.20;;;2.97;;
29246;SDS011;16272;48.188;9.964;2023-12-29T11:45:28;7.95;;;2.90;;
29246;SDS011;16272;48.188;9.964;2023-12-29T11:47:57;7.50;;;2.53;;
29246;SDS011;16272;48.188;9.964;2023-12-29T11:50:34;8.23;;;2.83;;
29246;SDS011;16272;48.188;9.964;2023-12-29T11:53:02;7.45;;;3.20;;
29246;SDS011;16272;48.188;9.964;2023-12-29T11:55:31;7.82;;;3.20;;
29246;SDS011;16272;48.188;9.964;2023-12-29T11:58:00;6.90;;;2.65;;
29246;SDS011;16272;48.188;9.964;2023-12-29T12:00:44;6.57;;;2.20;;
29246;SDS011;16272;48.188;9.964;2023-12-29T12:03:44;7.10;;;2.80;;
29246;SDS011;16272;48.188;9.964;2023-12-29T12:06:02;6.90;;;2.40;;
29246;SDS011;16272;48.188;9.964;2023-12-29T12:08:29;7.55;;;2.92;;
29246;SDS011;16272;48.188;9.964;2023-12-29T12:10:56;7.10;;;2.60;;
29246;SDS011;16272;48.188;9.964;2023-12-29T12:19:13;7.88;;;2.90;;
29246;SDS011;16272;48.188;9.964;2023-12-29T12:21:39;7.60;;;2.50;;
29246;SDS011;16272;48.188;9.964;2023-12-29T12:24:05;6.57;;;2.55;;
29246;SDS011;16272;48.188;9.964;2023-12-29T12:26:32;6.80;;;2.47;;
29246;SDS011;16272;48.188;9.964;2023-12-29T12:28:58;7.13;;;2.80;;
29246;SDS011;16272;48.188;9.964;2023-12-29T12:31:24;6.60;;;2.42;;
29246;SDS011;16272;48.188;9.964;2023-12-29T12:33:53;6.70;;;2.67;;
29246;SDS011;16272;48.188;9.964;2023-12-29T12:36:20;6.32;;;2.20;;
29246;SDS011;16272;48.188;9.964;2023-12-29T12:41:18;6.70;;;2.22;;
29246;SDS011;16272;48.188;9.964;2023-12-29T12:46:41;6.57;;;2.35;;
29246;SDS011;16272;48.188;9.964;2023-12-29T12:49:09;6.20;;;2.20;;
29246;SDS011;16272;48.188;9.964;2023-12-29T12:51:34;5.90;;;2.00;;
29246;SDS011;16272;48.188;9.964;2023-12-29T12:54:00;5.90;;;1.92;;
29246;SDS011;16272;48.188;9.964;2023-12-29T12:56:26;5.47;;;1.73;;
29246;SDS011;16272;48.188;9.964;2023-12-29T12:58:54;5.60;;;1.60;;
29246;SDS011;16272;48.188;9.964;2023-12-29T13:01:21;6.03;;;1.80;;
29246;SDS011;16272;48.188;9.964;2023-12-29T13:03:46;6.32;;;2.08;;
29246;SDS011;16272;48.188;9.964;2023-12-29T13:06:12;5.80;;;1.80;;
29246;SDS011;16272;48.188;9.964;2023-12-29T13:08:38;5.57;;;1.90;;
29246;SDS011;16272;48.188;9.964;2023-12-29T13:11:03;5.70;;;1.80;;
29246;SDS011;16272;48.188;9.964;2023-12-29T13:13:42;5.40;;;1.70;;
29246;SDS011;16272;48.188;9.964;2023-12-29T13:16:08;5.68;;;1.80;;
29246;SDS011;16272;48.188;9.964;2023-12-29T13:18:33;5.57;;;1.70;;
29246;SDS011;16272;48.188;9.964;2023-12-29T13:21:00;6.03;;;1.70;;
29246;SDS011;16272;48.188;9.964;2023-12-29T13:23:26;5.47;;;1.65;;
29246;SDS011;16272;48.188;9.964;2023-12-29T13:26:02;5.60;;;1.50;;
29246;SDS011;16272;48.188;9.964;2023-12-29T13:28:31;5.22;;;1.60;;
29246;SDS011;16272;48.188;9.964;2023-12-29T13:30:58;5.43;;;1.42;;
29246;SDS011;16272;48.188;9.964;2023-12-29T13:33:27;5.57;;;1.60;;
29246;SDS011;16272;48.188;9.964;2023-12-29T13:36:05;5.07;;;1.50;;
29246;SDS011;16272;48.188;9.964;2023-12-29T13:38:54;5.83;;;1.50;;
29246;SDS011;16272;48.188;9.964;2023-12-29T13:41:28;5.27;;;1.70;;
29246;SDS011;16272;48.188;9.964;2023-12-29T13:43:55;5.28;;;1.50;;
29246;SDS011;16272;48.188;9.964;2023-12-29T13:46:21;5.05;;;1.48;;
29246;SDS011;16272;48.188;9.964;2023-12-29T13:48:47;5.13;;;1.50;;
29246;SDS011;16272;48.188;9.964;2023-12-29T13:51:16;5.93;;;1.27;;
29246;SDS011;16272;48.188;9.964;2023-12-29T13:53:41;5.22;;;1.50;;
29246;SDS011;16272;48.188;9.964;2023-12-29T13:56:07;5.40;;;1.50;;
29246;SDS011;16272;48.188;9.964;2023-12-29T13:58:33;5.57;;;1.80;;
29246;SDS011;16272;48.188;9.964;2023-12-29T14:00:59;5.40;;;1.53;;
29246;SDS011;16272;48.188;9.964;2023-12-29T14:03:32;6.32;;;2.03;;
29246;SDS011;16272;48.188;9.964;2023-12-29T14:06:22;5.22;;;1.55;;
29246;SDS011;16272;48.188;9.964;2023-12-29T14:08:57;5.70;;;1.70;;
29246;SDS011;16272;48.188;9.964;2023-12-29T14:11:22;4.88;;;1.50;;
29246;SDS011;16272;48.188;9.964;2023-12-29T14:13:48;5.43;;;1.77;;
29246;SDS011;16272;48.188;9.964;2023-12-29T14:16:13;5.40;;;1.57;;
29246;SDS011;16272;48.188;9.964;2023-12-29T14:23:59;5.90;;;1.80;;
29246;SDS011;16272;48.188;9.964;2023-12-29T14:26:27;6.03;;;1.97;;
29246;SDS011;16272;48.188;9.964;2023-12-29T14:31:35;5.10;;;1.47;;
29246;SDS011;16272;48.188;9.964;2023-12-29T14:34:02;6.28;;;1.60;;
29246;SDS011;16272;48.188;9.964;2023-12-29T14:36:28;6.15;;;1.52;;
29246;SDS011;16272;48.188;9.964;2023-12-29T14:38:54;5.53;;;1.77;;
29246;SDS011;16272;48.188;9.964;2023-12-29T14:41:19;5.50;;;1.60;;
29246;SDS011;16272;48.188;9.964;2023-12-29T14:43:44;5.47;;;1.70;;
29246;SDS011;16272;48.188;9.964;2023-12-29T14:46:10;5.37;;;1.80;;
29246;SDS011;16272;48.188;9.964;2023-12-29T14:48:35;4.87;;;1.33;;
29246;SDS011;16272;48.188;9.964;2023-12-29T14:51:00;6.13;;;1.70;;
29246;SDS011;16272;48.188;9.964;2023-12-29T14:53:26;5.53;;;1.53;;
29246;SDS011;16272;48.188;9.964;2023-12-29T14:55:51;5.53;;;1.70;;
29246;SDS011;16272;48.188;9.964;2023-12-29T14:58:16;5.50;;;1.70;;
29246;SDS011;16272;48.188;9.964;2023-12-29T15:00:45;6.20;;;1.70;;
29246;SDS011;16272;48.188;9.964;2023-12-29T15:03:13;5.50;;;1.58;;
29246;SDS011;16272;48.188;9.964;2023-12-29T15:05:43;6.05;;;2.10;;
29246;SDS011;16272;48.188;9.964;2023-12-29T15:08:09;6.25;;;1.67;;